createdAt,value
2023-06-26T00:02:15.297Z,8.38
2023-06-26T00:04:44.110Z,9.05
2023-06-26T00:07:11.098Z,7.10
2023-06-26T00:09:38.295Z,7.63
2023-06-26T00:12:05.158Z,7.47
2023-06-26T00:14:31.873Z,7.70
2023-06-26T00:16:58.291Z,7.90
2023-06-26T00:19:24.718Z,7.18
2023-06-26T00:21:51.170Z,6.90
2023-06-26T00:24:18.319Z,8.13
2023-06-26T00:26:47.624Z,8.88
2023-06-26T00:29:14.057Z,7.53
2023-06-26T00:31:40.553Z,11.23
2023-06-26T00:34:07.414Z,8.85
2023-06-26T00:36:33.885Z,9.67
2023-06-26T00:39:00.566Z,7.85
2023-06-26T00:41:27.015Z,8.32
2023-06-26T00:43:53.510Z,9.55
2023-06-26T00:46:19.974Z,7.05
2023-06-26T00:48:49.193Z,9.10
2023-06-26T00:51:16.403Z,6.75
2023-06-26T00:53:43.485Z,8.27
2023-06-26T00:56:11.308Z,8.13
2023-06-26T00:58:37.884Z,9.68
2023-06-26T01:01:04.994Z,6.73
2023-06-26T01:03:31.435Z,8.73
2023-06-26T01:06:00.135Z,7.53
2023-06-26T01:08:27.842Z,7.82
2023-06-26T01:10:54.572Z,6.90
2023-06-26T01:13:21.495Z,7.07
2023-06-26T01:15:49.128Z,6.75
2023-06-26T01:18:16.494Z,7.32
2023-06-26T01:20:43.995Z,7.57
2023-06-26T01:23:23.240Z,7.60
2023-06-26T01:26:08.036Z,8.67
2023-06-26T01:28:41.947Z,8.40
2023-06-26T01:31:09.584Z,6.32
2023-06-26T01:33:36.990Z,7.32
2023-06-26T01:36:04.510Z,7.72
2023-06-26T01:38:31.244Z,8.93
2023-06-26T01:40:57.899Z,6.55
2023-06-26T01:43:35.470Z,8.60
2023-06-26T01:46:07.080Z,8.93
2023-06-26T01:48:41.577Z,7.95
2023-06-26T01:51:09.354Z,8.90
2023-06-26T01:53:42.569Z,10.98
2023-06-26T01:56:14.875Z,7.82
2023-06-26T01:58:45.757Z,7.00
2023-06-26T02:01:13.063Z,10.38
2023-06-26T02:03:39.608Z,6.93
2023-06-26T02:06:06.149Z,7.57
2023-06-26T02:08:32.554Z,8.00
2023-06-26T02:10:59.027Z,8.45
2023-06-26T02:13:25.521Z,8.18
2023-06-26T02:15:52.019Z,6.53
2023-06-26T02:18:18.469Z,9.48
2023-06-26T02:20:44.817Z,7.05
2023-06-26T02:23:11.188Z,10.43
2023-06-26T02:25:37.530Z,8.48
2023-06-26T02:28:04.113Z,12.93
2023-06-26T02:30:30.599Z,8.98
2023-06-26T02:32:57.050Z,9.68
2023-06-26T02:35:23.490Z,11.30
2023-06-26T02:37:49.910Z,8.32
2023-06-26T02:40:16.374Z,7.13
2023-06-26T02:42:42.949Z,8.98
2023-06-26T02:45:10.232Z,9.20
2023-06-26T02:47:36.733Z,7.95
2023-06-26T02:50:03.186Z,13.57
2023-06-26T02:52:29.661Z,9.50
2023-06-26T02:54:56.063Z,11.20
2023-06-26T02:57:22.444Z,11.45
2023-06-26T02:59:49.113Z,11.52
2023-06-26T03:02:15.534Z,10.52
2023-06-26T03:04:41.889Z,9.13
2023-06-26T03:07:08.434Z,14.18
2023-06-26T03:09:34.858Z,10.85
2023-06-26T03:12:01.469Z,15.32
2023-06-26T03:14:27.906Z,10.80
2023-06-26T03:16:54.496Z,12.27
2023-06-26T03:19:20.836Z,9.70
2023-06-26T03:21:47.264Z,11.90
2023-06-26T03:24:13.705Z,14.85
2023-06-26T03:26:40.099Z,13.15
2023-06-26T03:29:06.643Z,9.67
2023-06-26T03:31:33.044Z,12.07
2023-06-26T03:33:59.575Z,11.52
2023-06-26T03:36:25.990Z,12.85
2023-06-26T03:38:52.452Z,13.63
2023-06-26T03:41:18.922Z,13.47
2023-06-26T03:43:45.275Z,12.43
2023-06-26T03:46:11.818Z,12.82
2023-06-26T03:48:38.350Z,15.60
2023-06-26T03:51:04.791Z,15.70
2023-06-26T03:53:31.210Z,14.57
2023-06-26T03:55:57.593Z,12.23
2023-06-26T03:58:24.080Z,12.48
2023-06-26T04:00:50.505Z,13.02
2023-06-26T04:03:16.867Z,13.43
2023-06-26T04:05:43.320Z,11.40
2023-06-26T04:08:09.953Z,13.48
2023-06-26T04:10:36.363Z,12.70
2023-06-26T04:13:02.947Z,11.18
2023-06-26T04:15:29.489Z,13.15
2023-06-26T04:17:55.895Z,11.07
2023-06-26T04:20:23.048Z,10.82
2023-06-26T04:22:49.625Z,9.23
2023-06-26T04:25:16.107Z,10.15
2023-06-26T04:27:42.560Z,11.38
2023-06-26T04:30:10.099Z,9.97
2023-06-26T04:32:36.550Z,14.20
2023-06-26T04:35:03.107Z,8.77
2023-06-26T04:37:29.471Z,7.60
2023-06-26T04:39:56.867Z,10.38
2023-06-26T04:42:23.415Z,11.43
2023-06-26T04:44:49.965Z,7.30
2023-06-26T04:47:16.510Z,9.93
2023-06-26T04:49:43.120Z,10.32
2023-06-26T04:52:09.500Z,9.88
2023-06-26T04:54:35.865Z,7.07
2023-06-26T04:57:02.219Z,7.78
2023-06-26T04:59:28.700Z,8.77
2023-06-26T05:01:55.481Z,8.07
2023-06-26T05:04:21.916Z,8.65
2023-06-26T05:06:48.437Z,7.70
2023-06-26T05:09:14.919Z,9.80
2023-06-26T05:11:41.517Z,6.47
2023-06-26T05:14:07.917Z,7.32
2023-06-26T05:16:34.843Z,5.97
2023-06-26T05:19:01.216Z,7.00
2023-06-26T05:21:27.916Z,8.02
2023-06-26T05:23:57.378Z,9.35
2023-06-26T05:26:24.216Z,6.80
2023-06-26T05:28:50.963Z,5.85
2023-06-26T05:31:17.721Z,7.17
2023-06-26T05:33:45.162Z,7.45
2023-06-26T05:36:13.796Z,4.45
2023-06-26T05:38:40.630Z,5.47
2023-06-26T05:41:07.447Z,7.13
2023-06-26T05:43:33.933Z,6.47
2023-06-26T05:46:00.404Z,5.72
2023-06-26T05:48:26.958Z,5.95
2023-06-26T05:50:53.749Z,8.52
2023-06-26T05:53:20.414Z,5.68
2023-06-26T05:55:47.135Z,6.27
2023-06-26T05:58:13.933Z,6.80
2023-06-26T06:00:40.918Z,5.88
2023-06-26T06:03:07.525Z,3.88
2023-06-26T06:05:34.118Z,6.05
2023-06-26T06:08:00.525Z,5.60
2023-06-26T06:10:26.953Z,6.72
2023-06-26T06:12:53.363Z,5.00
2023-06-26T06:15:19.751Z,6.35
2023-06-26T06:17:46.264Z,7.20
2023-06-26T06:20:12.869Z,6.27
2023-06-26T06:22:39.296Z,3.40
2023-06-26T06:25:06.222Z,5.57
2023-06-26T06:27:32.703Z,8.70
2023-06-26T06:29:59.179Z,7.72
2023-06-26T06:32:25.704Z,5.57
2023-06-26T06:34:52.197Z,6.10
2023-06-26T06:37:18.565Z,5.65
2023-06-26T06:39:45.026Z,5.28
2023-06-26T06:42:11.562Z,4.28
2023-06-26T06:44:38.144Z,7.30
2023-06-26T06:47:04.699Z,3.92
2023-06-26T06:49:31.208Z,6.32
2023-06-26T06:51:57.673Z,4.57
2023-06-26T06:54:27.411Z,6.55
2023-06-26T06:56:53.915Z,5.63
2023-06-26T06:59:20.372Z,4.47
2023-06-26T07:01:46.873Z,6.78
2023-06-26T07:04:13.350Z,8.30
2023-06-26T07:06:39.846Z,4.85
2023-06-26T07:09:06.239Z,7.17
2023-06-26T07:11:32.723Z,4.85
2023-06-26T07:13:59.160Z,5.53
2023-06-26T07:16:25.676Z,8.35
2023-06-26T07:18:52.136Z,9.73
2023-06-26T07:21:18.650Z,5.63
2023-06-26T07:23:45.048Z,5.88
2023-06-26T07:26:11.576Z,6.85
2023-06-26T07:28:37.985Z,5.13
2023-06-26T07:31:04.446Z,7.32
2023-06-26T07:33:30.914Z,8.73
2023-06-26T07:35:57.418Z,5.72
2023-06-26T07:38:23.874Z,7.00
2023-06-26T07:40:50.495Z,7.60
2023-06-26T07:43:16.919Z,6.20
2023-06-26T07:45:43.326Z,10.10
2023-06-26T07:48:09.751Z,6.90
2023-06-26T07:50:36.515Z,7.13
2023-06-26T07:53:03.154Z,7.03
2023-06-26T07:55:29.618Z,8.35
2023-06-26T07:57:56.087Z,8.53
2023-06-26T08:00:22.592Z,6.97
2023-06-26T08:02:49.018Z,6.72
2023-06-26T08:05:15.849Z,6.70
2023-06-26T08:07:42.421Z,8.30
2023-06-26T08:10:09.208Z,7.77
2023-06-26T08:12:35.619Z,8.32
2023-06-26T08:15:02.054Z,5.55
2023-06-26T08:17:30.443Z,4.25
2023-06-26T08:19:57.232Z,7.20
2023-06-26T08:22:23.675Z,6.53
2023-06-26T08:24:50.026Z,7.35
2023-06-26T08:27:16.532Z,5.88
2023-06-26T08:29:43.045Z,5.75
2023-06-26T08:32:09.540Z,4.28
2023-06-26T08:34:35.914Z,3.93
2023-06-26T08:37:02.366Z,5.10
2023-06-26T08:39:29.818Z,8.77
2023-06-26T08:41:56.356Z,5.88
2023-06-26T08:44:23.079Z,5.53
2023-06-26T08:46:49.666Z,7.57
2023-06-26T08:49:21.870Z,4.93
2023-06-26T08:52:01.016Z,7.47
2023-06-26T08:54:35.340Z,6.10
2023-06-26T08:57:02.622Z,6.05
2023-06-26T08:59:29.896Z,5.53
2023-06-26T09:01:56.864Z,7.90
2023-06-26T09:04:23.376Z,4.28
2023-06-26T09:06:49.816Z,5.47
2023-06-26T09:09:16.356Z,6.22
2023-06-26T09:11:42.801Z,5.17
2023-06-26T09:14:09.379Z,4.95
2023-06-26T09:16:41.355Z,7.55
2023-06-26T09:19:13.040Z,6.15
2023-06-26T09:21:43.816Z,6.95
2023-06-26T09:24:10.921Z,5.80
2023-06-26T09:26:38.713Z,6.47
2023-06-26T09:29:08.459Z,6.78
2023-06-26T09:31:42.010Z,3.95
2023-06-26T09:34:09.996Z,6.07
2023-06-26T09:36:39.222Z,5.13
2023-06-26T09:39:08.600Z,6.28
2023-06-26T09:41:36.600Z,4.00
2023-06-26T09:44:03.847Z,4.28
2023-06-26T09:46:31.476Z,3.50
2023-06-26T09:49:09.459Z,5.40
2023-06-26T09:51:38.298Z,4.70
2023-06-26T09:54:05.989Z,5.20
2023-06-26T09:56:33.727Z,5.80
2023-06-26T09:59:02.614Z,5.07
2023-06-26T10:01:30.237Z,5.37
2023-06-26T10:03:56.968Z,5.95
2023-06-26T10:06:28.963Z,4.63
2023-06-26T10:08:57.267Z,7.72
2023-06-26T10:11:26.429Z,4.40
2023-06-26T10:14:05.184Z,3.80
2023-06-26T10:16:42.735Z,3.15
2023-06-26T10:19:11.623Z,3.95
2023-06-26T10:21:39.418Z,6.60
2023-06-26T10:24:11.018Z,5.30
2023-06-26T10:26:43.137Z,7.67
2023-06-26T10:29:10.644Z,5.63
2023-06-26T10:31:39.865Z,3.83
2023-06-26T10:34:06.841Z,4.78
2023-06-26T10:36:33.390Z,5.72
2023-06-26T10:39:05.343Z,6.13
2023-06-26T10:41:39.139Z,5.95
2023-06-26T10:44:07.889Z,5.45
2023-06-26T10:46:50.174Z,6.18
2023-06-26T10:49:16.712Z,8.32
2023-06-26T10:51:50.845Z,4.90
2023-06-26T10:54:18.507Z,4.85
2023-06-26T10:56:50.097Z,13.85
2023-06-26T10:59:21.605Z,9.00
2023-06-26T11:01:56.051Z,6.60
2023-06-26T11:04:46.296Z,6.70
2023-06-26T11:07:23.632Z,7.75
2023-06-26T11:10:10.314Z,5.50
2023-06-26T11:12:39.396Z,4.70
2023-06-26T11:15:16.488Z,7.30
2023-06-26T11:17:44.057Z,4.27
2023-06-26T11:20:13.355Z,6.05
2023-06-26T11:22:41.972Z,6.28
2023-06-26T11:25:10.039Z,4.45
2023-06-26T11:27:39.439Z,4.85
2023-06-26T11:30:07.793Z,7.73
2023-06-26T11:32:36.735Z,4.80
2023-06-26T11:35:04.126Z,6.30
2023-06-26T11:37:30.640Z,6.13
2023-06-26T11:39:57.124Z,6.03
2023-06-26T11:42:24.696Z,5.33
2023-06-26T11:44:51.317Z,5.78
2023-06-26T11:47:20.171Z,4.82
2023-06-26T11:49:48.380Z,5.28
2023-06-26T11:52:16.585Z,5.57
2023-06-26T11:54:44.151Z,3.73
2023-06-26T11:57:15.238Z,3.80
2023-06-26T11:59:42.357Z,4.55
2023-06-26T12:02:10.720Z,7.45
2023-06-26T12:04:39.592Z,7.28
2023-06-26T12:07:08.190Z,4.57
2023-06-26T12:09:35.276Z,6.32
2023-06-26T12:12:02.646Z,5.78
2023-06-26T12:14:30.020Z,3.90
2023-06-26T12:16:56.615Z,4.85
2023-06-26T12:19:26.618Z,7.63
2023-06-26T12:21:53.194Z,5.95
2023-06-26T12:24:22.155Z,3.13
2023-06-26T12:26:52.180Z,4.90
2023-06-26T12:29:20.431Z,5.20
2023-06-26T12:31:53.781Z,3.70
2023-06-26T12:34:22.430Z,3.67
2023-06-26T12:36:50.701Z,4.93
2023-06-26T12:39:25.995Z,7.13
2023-06-26T12:42:03.298Z,4.53
2023-06-26T12:44:32.399Z,4.07
2023-06-26T12:47:01.335Z,4.53
2023-06-26T12:49:32.543Z,5.50
2023-06-26T12:52:00.696Z,5.90
2023-06-26T12:54:27.334Z,5.95
2023-06-26T12:56:53.954Z,6.50
2023-06-26T12:59:21.628Z,6.07
2023-06-26T13:01:48.733Z,5.15
2023-06-26T13:04:16.184Z,3.65
2023-06-26T13:06:42.892Z,7.55
2023-06-26T13:09:09.742Z,7.50
2023-06-26T13:11:38.061Z,5.03
2023-06-26T13:14:10.367Z,4.25
2023-06-26T13:16:38.161Z,4.25
2023-06-26T13:19:04.668Z,5.85
2023-06-26T13:21:31.198Z,3.83
2023-06-26T13:23:57.738Z,7.13
2023-06-26T13:26:36.742Z,3.83
2023-06-26T13:29:04.902Z,4.85
2023-06-26T13:31:31.768Z,4.85
2023-06-26T13:33:59.800Z,5.43
2023-06-26T13:36:26.514Z,3.80
2023-06-26T13:38:53.150Z,3.92
2023-06-26T13:41:19.704Z,4.65
2023-06-26T13:43:46.316Z,5.05
2023-06-26T13:46:13.463Z,5.23
2023-06-26T13:48:40.225Z,4.80
2023-06-26T13:51:06.801Z,3.72
2023-06-26T13:53:34.644Z,3.50
2023-06-26T13:56:01.769Z,4.68
2023-06-26T13:58:28.947Z,3.07
2023-06-26T14:00:55.621Z,4.72
2023-06-26T14:03:22.932Z,6.63
2023-06-26T14:05:50.220Z,4.47
2023-06-26T14:08:18.329Z,4.40
2023-06-26T14:10:45.104Z,3.27
2023-06-26T14:13:12.155Z,3.92
2023-06-26T14:15:39.005Z,5.35
2023-06-26T14:18:06.082Z,4.75
2023-06-26T14:20:34.584Z,4.00
2023-06-26T14:23:01.381Z,4.63
2023-06-26T14:25:28.114Z,4.82
2023-06-26T14:27:59.156Z,5.38
2023-06-26T14:30:26.069Z,7.75
2023-06-26T14:32:54.037Z,3.45
2023-06-26T14:35:20.855Z,3.23
2023-06-26T14:37:49.537Z,2.97
2023-06-26T14:40:16.266Z,5.15
2023-06-26T14:42:43.572Z,5.05
2023-06-26T14:45:11.946Z,4.63
2023-06-26T14:47:39.369Z,6.17
2023-06-26T14:50:06.974Z,5.32
2023-06-26T14:52:33.754Z,7.95
2023-06-26T14:55:00.704Z,4.65
2023-06-26T14:57:27.509Z,5.40
2023-06-26T14:59:54.352Z,3.83
2023-06-26T15:02:21.120Z,4.30
2023-06-26T15:04:47.865Z,3.15
2023-06-26T15:07:14.650Z,2.92
2023-06-26T15:09:41.346Z,3.28
2023-06-26T15:12:08.458Z,3.83
2023-06-26T15:14:35.170Z,4.72
2023-06-26T15:17:01.864Z,6.63
2023-06-26T15:19:28.532Z,3.95
2023-06-26T15:21:55.263Z,4.85
2023-06-26T15:24:22.056Z,5.57
2023-06-26T15:26:50.699Z,3.65
2023-06-26T15:29:17.231Z,2.65
2023-06-26T15:31:43.761Z,3.90
2023-06-26T15:34:11.189Z,5.28
2023-06-26T15:36:39.491Z,3.87
2023-06-26T15:39:05.964Z,4.07
2023-06-26T15:41:32.501Z,2.97
2023-06-26T15:43:59.013Z,2.80
2023-06-26T15:46:25.968Z,5.60
2023-06-26T15:48:52.463Z,6.90
2023-06-26T15:51:18.969Z,5.05
2023-06-26T15:53:45.422Z,3.67
2023-06-26T15:56:12.609Z,4.93
2023-06-26T15:58:39.284Z,4.43
2023-06-26T16:01:05.867Z,4.73
2023-06-26T16:03:32.416Z,3.47
2023-06-26T16:05:59.075Z,4.93
2023-06-26T16:08:25.611Z,4.82
2023-06-26T16:10:54.320Z,5.82
2023-06-26T16:13:20.944Z,3.50
2023-06-26T16:15:47.577Z,4.45
2023-06-26T16:18:15.886Z,4.68
2023-06-26T16:20:42.369Z,4.40
2023-06-26T16:23:09.018Z,4.68
2023-06-26T16:25:35.557Z,3.90
2023-06-26T16:28:02.045Z,3.97
2023-06-26T16:30:28.538Z,3.67
2023-06-26T16:32:55.206Z,2.75
2023-06-26T16:35:21.876Z,4.68
2023-06-26T16:37:48.383Z,3.23
2023-06-26T16:40:14.862Z,3.53
2023-06-26T16:42:41.377Z,3.97
2023-06-26T16:45:08.877Z,4.30
2023-06-26T16:47:38.675Z,6.75
2023-06-26T16:50:07.492Z,4.80
2023-06-26T16:52:34.010Z,5.40
2023-06-26T16:55:00.876Z,4.57
2023-06-26T16:57:27.332Z,5.50
2023-06-26T16:59:53.742Z,2.95
2023-06-26T17:02:20.245Z,3.77
2023-06-26T17:04:46.737Z,5.88
2023-06-26T17:07:13.274Z,4.18
2023-06-26T17:09:39.828Z,5.30
2023-06-26T17:12:06.615Z,5.53
2023-06-26T17:14:33.077Z,4.07
2023-06-26T17:16:59.507Z,5.25
2023-06-26T17:19:25.927Z,4.18
2023-06-26T17:21:52.393Z,4.63
2023-06-26T17:24:18.863Z,4.25
2023-06-26T17:26:45.389Z,9.17
2023-06-26T17:29:12.177Z,4.10
2023-06-26T17:31:41.274Z,3.03
2023-06-26T17:34:08.436Z,4.38
2023-06-26T17:36:37.127Z,5.40
2023-06-26T17:39:04.008Z,3.77
2023-06-26T17:41:30.344Z,4.38
2023-06-26T17:43:56.795Z,5.72
2023-06-26T17:46:23.401Z,4.57
2023-06-26T17:48:49.891Z,3.40
2023-06-26T17:51:16.288Z,4.80
2023-06-26T17:53:42.722Z,3.22
2023-06-26T17:56:11.720Z,3.55
2023-06-26T17:58:38.175Z,4.55
2023-06-26T18:01:04.607Z,3.10
2023-06-26T18:03:31.266Z,4.57
2023-06-26T18:05:57.801Z,4.05
2023-06-26T18:08:24.251Z,4.32
2023-06-26T18:10:50.786Z,4.80
2023-06-26T18:13:17.226Z,5.03
2023-06-26T18:15:43.698Z,4.27
2023-06-26T18:18:10.219Z,5.40
2023-06-26T18:20:36.673Z,3.33
2023-06-26T18:23:03.085Z,4.15
2023-06-26T18:25:29.560Z,4.22
2023-06-26T18:27:56.055Z,4.63
2023-06-26T18:30:22.519Z,4.32
2023-06-26T18:32:49.306Z,4.38
2023-06-26T18:35:16.112Z,5.65
2023-06-26T18:37:42.524Z,3.28
2023-06-26T18:40:09.394Z,5.30
2023-06-26T18:42:35.943Z,3.95
2023-06-26T18:45:02.378Z,4.50
2023-06-26T18:47:28.864Z,7.50
2023-06-26T18:49:55.243Z,4.57
2023-06-26T18:52:21.746Z,4.27
2023-06-26T18:54:48.254Z,5.13
2023-06-26T18:57:14.708Z,4.95
2023-06-26T18:59:41.166Z,3.10
2023-06-26T19:02:07.639Z,3.55
2023-06-26T19:04:34.080Z,6.23
2023-06-26T19:07:00.573Z,5.07
2023-06-26T19:09:27.161Z,3.05
2023-06-26T19:11:53.576Z,4.32
2023-06-26T19:14:19.998Z,4.18
2023-06-26T19:16:46.447Z,3.90
2023-06-26T19:19:12.893Z,3.00
2023-06-26T19:21:39.351Z,3.83
2023-06-26T19:24:05.956Z,4.55
2023-06-26T19:26:32.467Z,6.55
2023-06-26T19:28:58.963Z,5.20
2023-06-26T19:31:25.665Z,3.45
2023-06-26T19:33:52.242Z,5.80
2023-06-26T19:36:18.730Z,3.17
2023-06-26T19:38:45.164Z,3.90
2023-06-26T19:41:11.565Z,3.53
2023-06-26T19:43:38.251Z,3.72
2023-06-26T19:46:04.686Z,3.22
2023-06-26T19:48:31.164Z,4.72
2023-06-26T19:50:57.753Z,8.95
2023-06-26T19:53:26.657Z,5.67
2023-06-26T19:55:53.257Z,4.50
2023-06-26T19:58:19.797Z,3.70
2023-06-26T20:00:46.357Z,4.65
2023-06-26T20:03:12.992Z,3.47
2023-06-26T20:05:40.075Z,3.80
2023-06-26T20:08:06.743Z,4.50
2023-06-26T20:10:33.277Z,4.60
2023-06-26T20:12:59.767Z,3.97
2023-06-26T20:15:26.227Z,4.22
2023-06-26T20:17:52.682Z,5.63
2023-06-26T20:20:19.192Z,4.15
2023-06-26T20:22:46.944Z,2.78
2023-06-26T20:25:13.518Z,6.28
2023-06-26T20:27:40.054Z,6.68
2023-06-26T20:30:07.760Z,4.60
2023-06-26T20:32:34.261Z,3.08
2023-06-26T20:35:00.718Z,5.07
2023-06-26T20:37:27.325Z,3.60
2023-06-26T20:39:54.038Z,4.95
2023-06-26T20:42:20.695Z,4.43
2023-06-26T20:44:50.412Z,4.60
2023-06-26T20:47:18.441Z,5.28
2023-06-26T20:49:45.131Z,4.05
2023-06-26T20:52:12.931Z,5.35
2023-06-26T20:54:40.241Z,4.87
2023-06-26T20:57:09.709Z,4.00
2023-06-26T20:59:40.127Z,3.78
2023-06-26T21:02:07.115Z,5.47
2023-06-26T21:04:36.561Z,6.20
2023-06-26T21:07:04.747Z,3.73
2023-06-26T21:09:36.006Z,3.40
2023-06-26T21:12:04.886Z,5.40
2023-06-26T21:14:31.968Z,4.18
2023-06-26T21:16:58.384Z,5.03
2023-06-26T21:19:24.910Z,5.63
2023-06-26T21:21:51.485Z,3.53
2023-06-26T21:24:17.941Z,5.65
2023-06-26T21:26:44.580Z,4.80
2023-06-26T21:29:11.048Z,7.60
2023-06-26T21:31:37.526Z,4.40
2023-06-26T21:34:04.087Z,7.38
2023-06-26T21:36:30.442Z,6.13
2023-06-26T21:38:56.874Z,3.80
2023-06-26T21:41:23.379Z,5.47
2023-06-26T21:43:49.821Z,4.20
2023-06-26T21:46:16.421Z,5.50
2023-06-26T21:48:44.362Z,4.13
2023-06-26T21:51:10.864Z,5.32
2023-06-26T21:53:37.396Z,3.85
2023-06-26T21:56:04.023Z,6.57
2023-06-26T21:58:30.602Z,4.05
2023-06-26T22:00:57.000Z,6.43
2023-06-26T22:03:23.451Z,4.28
2023-06-26T22:05:49.916Z,6.05
2023-06-26T22:08:16.403Z,2.67
2023-06-26T22:10:42.911Z,3.65
2023-06-26T22:13:09.491Z,4.82
2023-06-26T22:15:35.881Z,5.53
2023-06-26T22:18:02.462Z,6.95
2023-06-26T22:20:28.905Z,6.27
2023-06-26T22:22:55.357Z,5.63
2023-06-26T22:25:22.273Z,6.05
2023-06-26T22:27:51.272Z,4.55
2023-06-26T22:30:19.227Z,6.45
2023-06-26T22:32:47.021Z,6.70
2023-06-26T22:35:14.836Z,4.20
2023-06-26T22:37:42.750Z,4.53
2023-06-26T22:40:11.062Z,5.82
2023-06-26T22:42:38.839Z,5.43
2023-06-26T22:45:07.017Z,6.07
2023-06-26T22:47:34.290Z,8.10
2023-06-26T22:50:01.443Z,6.05
2023-06-26T22:52:28.198Z,5.03
2023-06-26T22:54:54.614Z,5.22
2023-06-26T22:57:21.080Z,4.53
2023-06-26T22:59:47.574Z,8.35
2023-06-26T23:02:14.497Z,9.90
2023-06-26T23:04:41.121Z,4.10
2023-06-26T23:07:08.012Z,4.35
2023-06-26T23:09:34.370Z,6.90
2023-06-26T23:12:00.838Z,5.78
2023-06-26T23:14:27.248Z,6.88
2023-06-26T23:16:56.097Z,6.28
2023-06-26T23:19:22.544Z,6.38
2023-06-26T23:21:48.923Z,6.23
2023-06-26T23:24:15.699Z,6.13
2023-06-26T23:26:42.149Z,5.18
2023-06-26T23:29:08.562Z,5.07
2023-06-26T23:31:35.129Z,6.10
2023-06-26T23:34:01.653Z,5.97
2023-06-26T23:36:28.030Z,4.75
2023-06-26T23:38:54.543Z,5.30
2023-06-26T23:41:20.984Z,5.43
2023-06-26T23:43:47.331Z,4.47
2023-06-26T23:46:13.833Z,5.33
2023-06-26T23:48:41.091Z,6.22
2023-06-26T23:51:07.902Z,5.40
2023-06-26T23:53:34.530Z,7.28
2023-06-26T23:56:00.981Z,7.85
2023-06-26T23:58:27.804Z,6.63
